sensor_id;sensor_type;location;lat;lon;timestamp;pressure;altitude;pressure_sealevel;temperature;humidity
23229;BME280;11783;50.350;6.576;2023-01-29T00:02:16;97378.41;;;-2.36;100.00
23229;BME280;11783;50.350;6.576;2023-01-29T00:04:41;97375.94;;;-2.37;100.00
23229;BME280;11783;50.350;6.576;2023-01-29T00:07:06;97369.63;;;-2.35;100.00
23229;BME280;11783;50.350;6.576;2023-01-29T00:09:33;97368.69;;;-2.34;100.00
23229;BME280;11783;50.350;6.576;2023-01-29T00:11:58;97359.09;;;-2.33;100.00
23229;BME280;11783;50.350;6.576;2023-01-29T00:14:23;97360.44;;;-2.29;100.00
23229;BME280;11783;50.350;6.576;2023-01-29T00:16:50;97364.84;;;-2.30;100.00
23229;BME280;11783;50.350;6.576;2023-01-29T00:19:15;97362.09;;;-2.28;100.00
23229;BME280;11783;50.350;6.576;2023-01-29T00:21:41;97359.63;;;-2.30;100.00
23229;BME280;11783;50.350;6.576;2023-01-29T00:24:07;97361.41;;;-2.40;100.00
23229;BME280;11783;50.350;6.576;2023-01-29T00:26:35;97354.94;;;-2.46;100.00
23229;BME280;11783;50.350;6.576;2023-01-29T00:29:03;97347.97;;;-2.45;100.00
23229;BME280;11783;50.350;6.576;2023-01-29T00:31:33;97342.59;;;-2.44;100.00
23229;BME280;11783;50.350;6.576;2023-01-29T00:34:02;97340.72;;;-2.41;100.00
23229;BME280;11783;50.350;6.576;2023-01-29T00:36:27;97338.81;;;-2.39;100.00
23229;BME280;11783;50.350;6.576;2023-01-29T00:38:57;97340.31;;;-2.37;100.00
23229;BME280;11783;50.350;6.576;2023-01-29T00:41:26;97334.00;;;-2.34;100.00
23229;BME280;11783;50.350;6.576;2023-01-29T00:44:12;97334.97;;;-2.35;100.00
23229;BME280;11783;50.350;6.576;2023-01-29T00:46:57;97334.00;;;-2.34;100.00
23229;BME280;11783;50.350;6.576;2023-01-29T00:49:23;97333.31;;;-2.36;100.00
23229;BME280;11783;50.350;6.576;2023-01-29T00:51:53;97334.16;;;-2.36;100.00
23229;BME280;11783;50.350;6.576;2023-01-29T00:54:39;97327.44;;;-2.38;100.00
23229;BME280;11783;50.350;6.576;2023-01-29T00:57:05;97320.59;;;-2.39;100.00
23229;BME280;11783;50.350;6.576;2023-01-29T00:59:32;97318.53;;;-2.36;100.00
23229;BME280;11783;50.350;6.576;2023-01-29T01:01:58;97311.22;;;-2.42;100.00
23229;BME280;11783;50.350;6.576;2023-01-29T01:04:42;97309.88;;;-2.46;100.00
23229;BME280;11783;50.350;6.576;2023-01-29T01:07:07;97307.69;;;-2.51;100.00
23229;BME280;11783;50.350;6.576;2023-01-29T01:09:36;97305.22;;;-2.52;100.00
23229;BME280;11783;50.350;6.576;2023-01-29T01:12:20;97301.63;;;-2.61;100.00
23229;BME280;11783;50.350;6.576;2023-01-29T01:14:46;97292.59;;;-2.66;100.00
23229;BME280;11783;50.350;6.576;2023-01-29T01:17:11;97298.19;;;-2.71;100.00
23229;BME280;11783;50.350;6.576;2023-01-29T01:19:36;97288.34;;;-2.77;100.00
23229;BME280;11783;50.350;6.576;2023-01-29T01:22:02;97285.84;;;-2.88;100.00
23229;BME280;11783;50.350;6.576;2023-01-29T01:24:29;97279.94;;;-2.90;100.00
23229;BME280;11783;50.350;6.576;2023-01-29T01:26:54;97288.81;;;-3.02;100.00
23229;BME280;11783;50.350;6.576;2023-01-29T01:29:19;97282.09;;;-3.05;100.00
23229;BME280;11783;50.350;6.576;2023-01-29T01:31:45;97284.00;;;-3.07;100.00
23229;BME280;11783;50.350;6.576;2023-01-29T01:34:10;97287.56;;;-3.08;100.00
23229;BME280;11783;50.350;6.576;2023-01-29T01:36:36;97292.06;;;-3.10;100.00
23229;BME280;11783;50.350;6.576;2023-01-29T01:39:01;97287.00;;;-3.12;100.00
23229;BME280;11783;50.350;6.576;2023-01-29T01:41:28;97293.53;;;-3.17;100.00
23229;BME280;11783;50.350;6.576;2023-01-29T01:43:57;97294.13;;;-3.14;100.00
23229;BME280;11783;50.350;6.576;2023-01-29T01:46:34;97298.88;;;-3.19;100.00
23229;BME280;11783;50.350;6.576;2023-01-29T01:51:33;97306.09;;;-3.22;100.00
23229;BME280;11783;50.350;6.576;2023-01-29T01:54:06;97307.06;;;-3.23;100.00
23229;BME280;11783;50.350;6.576;2023-01-29T01:56:35;97301.59;;;-3.20;100.00
23229;BME280;11783;50.350;6.576;2023-01-29T01:59:07;97311.88;;;-3.19;100.00
23229;BME280;11783;50.350;6.576;2023-01-29T02:01:34;97303.13;;;-3.18;100.00
23229;BME280;11783;50.350;6.576;2023-01-29T02:04:13;97302.41;;;-3.29;100.00
23229;BME280;11783;50.350;6.576;2023-01-29T02:07:00;97299.25;;;-3.33;100.00
23229;BME280;11783;50.350;6.576;2023-01-29T02:10:09;97300.97;;;-3.43;100.00
23229;BME280;11783;50.350;6.576;2023-01-29T02:12:36;97303.75;;;-3.56;100.00
23229;BME280;11783;50.350;6.576;2023-01-29T02:15:02;97302.78;;;-3.64;100.00
23229;BME280;11783;50.350;6.576;2023-01-29T02:17:28;97300.09;;;-3.74;100.00
23229;BME280;11783;50.350;6.576;2023-01-29T02:28:34;97293.38;;;-3.77;100.00
23229;BME280;11783;50.350;6.576;2023-01-29T02:34:10;97295.84;;;-3.75;100.00
23229;BME280;11783;50.350;6.576;2023-01-29T02:37:02;97292.13;;;-3.82;100.00
23229;BME280;11783;50.350;6.576;2023-01-29T02:45:17;97284.66;;;-3.76;100.00
23229;BME280;11783;50.350;6.576;2023-01-29T02:47:53;97289.16;;;-3.78;100.00
23229;BME280;11783;50.350;6.576;2023-01-29T02:50:41;97291.19;;;-3.81;100.00
23229;BME280;11783;50.350;6.576;2023-01-29T02:53:24;97287.25;;;-3.76;100.00
23229;BME280;11783;50.350;6.576;2023-01-29T02:55:52;97277.38;;;-3.82;100.00
23229;BME280;11783;50.350;6.576;2023-01-29T02:58:54;97285.03;;;-3.80;100.00
23229;BME280;11783;50.350;6.576;2023-01-29T03:01:29;97280.66;;;-3.80;100.00
23229;BME280;11783;50.350;6.576;2023-01-29T03:04:03;97280.09;;;-3.83;100.00
23229;BME280;11783;50.350;6.576;2023-01-29T03:06:34;97290.63;;;-3.85;100.00
23229;BME280;11783;50.350;6.576;2023-01-29T03:09:04;97277.63;;;-3.85;100.00
23229;BME280;11783;50.350;6.576;2023-01-29T03:11:38;97288.59;;;-3.81;100.00
23229;BME280;11783;50.350;6.576;2023-01-29T03:14:11;97297.72;;;-3.87;100.00
23229;BME280;11783;50.350;6.576;2023-01-29T03:16:48;97296.69;;;-3.96;100.00
23229;BME280;11783;50.350;6.576;2023-01-29T03:21:46;97297.59;;;-4.06;100.00
23229;BME280;11783;50.350;6.576;2023-01-29T03:24:52;97304.31;;;-4.04;100.00
23229;BME280;11783;50.350;6.576;2023-01-29T03:27:59;97301.06;;;-3.96;100.00
23229;BME280;11783;50.350;6.576;2023-01-29T03:30:49;97300.13;;;-3.95;100.00
23229;BME280;11783;50.350;6.576;2023-01-29T03:33:43;97302.56;;;-3.93;100.00
23229;BME280;11783;50.350;6.576;2023-01-29T03:39:03;97306.38;;;-3.98;100.00
23229;BME280;11783;50.350;6.576;2023-01-29T03:41:34;97305.00;;;-4.02;100.00
23229;BME280;11783;50.350;6.576;2023-01-29T03:44:11;97311.41;;;-4.06;100.00
23229;BME280;11783;50.350;6.576;2023-01-29T03:46:50;97322.34;;;-4.02;100.00
23229;BME280;11783;50.350;6.576;2023-01-29T03:57:48;97344.09;;;-4.14;100.00
23229;BME280;11783;50.350;6.576;2023-01-29T04:00:26;97346.81;;;-4.16;100.00
23229;BME280;11783;50.350;6.576;2023-01-29T04:03:14;97343.66;;;-4.19;100.00
23229;BME280;11783;50.350;6.576;2023-01-29T04:05:46;97331.31;;;-4.27;100.00
23229;BME280;11783;50.350;6.576;2023-01-29T04:08:21;97326.84;;;-4.36;100.00
23229;BME280;11783;50.350;6.576;2023-01-29T04:10:53;97326.03;;;-4.37;100.00
23229;BME280;11783;50.350;6.576;2023-01-29T04:13:22;97316.59;;;-4.38;100.00
23229;BME280;11783;50.350;6.576;2023-01-29T04:15:54;97310.97;;;-4.43;100.00
23229;BME280;11783;50.350;6.576;2023-01-29T04:18:23;97317.66;;;-4.40;100.00
23229;BME280;11783;50.350;6.576;2023-01-29T04:20:49;97312.47;;;-4.40;100.00
23229;BME280;11783;50.350;6.576;2023-01-29T04:23:23;97310.00;;;-4.42;100.00
23229;BME280;11783;50.350;6.576;2023-01-29T04:29:24;97286.09;;;-4.45;100.00
23229;BME280;11783;50.350;6.576;2023-01-29T04:34:28;97274.97;;;-4.47;100.00
23229;BME280;11783;50.350;6.576;2023-01-29T04:37:49;97282.31;;;-4.52;100.00
23229;BME280;11783;50.350;6.576;2023-01-29T04:40:09;97286.38;;;-4.60;100.00
23229;BME280;11783;50.350;6.576;2023-01-29T04:42:47;97278.22;;;-4.66;100.00
23229;BME280;11783;50.350;6.576;2023-01-29T04:51:04;97280.75;;;-4.76;100.00
23229;BME280;11783;50.350;6.576;2023-01-29T04:53:49;97279.22;;;-4.78;100.00
23229;BME280;11783;50.350;6.576;2023-01-29T04:56:27;97284.53;;;-4.80;100.00
23229;BME280;11783;50.350;6.576;2023-01-29T04:58:59;97282.78;;;-4.91;100.00
23229;BME280;11783;50.350;6.576;2023-01-29T05:01:27;97280.91;;;-4.89;100.00
23229;BME280;11783;50.350;6.576;2023-01-29T05:03:54;97276.06;;;-4.93;100.00
23229;BME280;11783;50.350;6.576;2023-01-29T05:06:26;97274.81;;;-4.99;100.00
23229;BME280;11783;50.350;6.576;2023-01-29T05:08:53;97281.38;;;-4.95;100.00
23229;BME280;11783;50.350;6.576;2023-01-29T05:11:20;97270.41;;;-4.87;100.00
23229;BME280;11783;50.350;6.576;2023-01-29T05:13:49;97260.28;;;-4.90;100.00
23229;BME280;11783;50.350;6.576;2023-01-29T05:16:19;97256.97;;;-4.92;100.00
23229;BME280;11783;50.350;6.576;2023-01-29T05:18:46;97266.41;;;-4.91;100.00
23229;BME280;11783;50.350;6.576;2023-01-29T05:21:13;97272.03;;;-4.86;100.00
23229;BME280;11783;50.350;6.576;2023-01-29T05:23:39;97274.63;;;-4.86;100.00
23229;BME280;11783;50.350;6.576;2023-01-29T05:26:04;97280.44;;;-4.82;100.00
23229;BME280;11783;50.350;6.576;2023-01-29T05:28:30;97286.88;;;-4.77;100.00
23229;BME280;11783;50.350;6.576;2023-01-29T05:30:55;97297.25;;;-4.77;100.00
23229;BME280;11783;50.350;6.576;2023-01-29T05:35:49;97268.88;;;-4.90;100.00
23229;BME280;11783;50.350;6.576;2023-01-29T05:38:15;97268.06;;;-4.90;100.00
23229;BME280;11783;50.350;6.576;2023-01-29T05:40:41;97274.69;;;-4.97;100.00
23229;BME280;11783;50.350;6.576;2023-01-29T05:43:15;97269.38;;;-4.96;100.00
23229;BME280;11783;50.350;6.576;2023-01-29T05:45:41;97260.19;;;-5.00;100.00
23229;BME280;11783;50.350;6.576;2023-01-29T05:48:06;97266.53;;;-5.04;100.00
23229;BME280;11783;50.350;6.576;2023-01-29T05:50:31;97266.53;;;-5.04;100.00
23229;BME280;11783;50.350;6.576;2023-01-29T05:52:58;97269.88;;;-5.02;100.00
23229;BME280;11783;50.350;6.576;2023-01-29T05:55:23;97265.97;;;-5.07;100.00
23229;BME280;11783;50.350;6.576;2023-01-29T05:57:49;97264.19;;;-5.07;100.00
23229;BME280;11783;50.350;6.576;2023-01-29T06:00:15;97260.31;;;-5.01;100.00
23229;BME280;11783;50.350;6.576;2023-01-29T06:02:40;97249.81;;;-5.00;100.00
23229;BME280;11783;50.350;6.576;2023-01-29T06:05:06;97252.88;;;-4.95;100.00
23229;BME280;11783;50.350;6.576;2023-01-29T06:07:31;97254.16;;;-4.89;100.00
23229;BME280;11783;50.350;6.576;2023-01-29T06:09:56;97260.59;;;-4.83;100.00
23229;BME280;11783;50.350;6.576;2023-01-29T06:12:22;97262.97;;;-4.80;100.00
23229;BME280;11783;50.350;6.576;2023-01-29T06:14:47;97264.38;;;-4.76;100.00
23229;BME280;11783;50.350;6.576;2023-01-29T06:17:12;97267.66;;;-4.74;100.00
23229;BME280;11783;50.350;6.576;2023-01-29T06:19:38;97271.44;;;-4.78;100.00
23229;BME280;11783;50.350;6.576;2023-01-29T06:22:03;97278.84;;;-4.74;100.00
23229;BME280;11783;50.350;6.576;2023-01-29T06:24:28;97277.22;;;-4.75;100.00
23229;BME280;11783;50.350;6.576;2023-01-29T06:26:54;97263.19;;;-4.83;100.00
23229;BME280;11783;50.350;6.576;2023-01-29T06:29:19;97259.69;;;-4.94;100.00
23229;BME280;11783;50.350;6.576;2023-01-29T06:31:44;97259.81;;;-4.95;100.00
23229;BME280;11783;50.350;6.576;2023-01-29T06:34:10;97261.72;;;-4.97;100.00
23229;BME280;11783;50.350;6.576;2023-01-29T06:36:35;97259.94;;;-4.97;100.00
23229;BME280;11783;50.350;6.576;2023-01-29T06:39:01;97264.56;;;-5.00;100.00
23229;BME280;11783;50.350;6.576;2023-01-29T06:41:26;97271.50;;;-5.01;100.00
23229;BME280;11783;50.350;6.576;2023-01-29T06:43:52;97270.56;;;-5.00;100.00
23229;BME280;11783;50.350;6.576;2023-01-29T06:46:18;97268.09;;;-5.12;100.00
23229;BME280;11783;50.350;6.576;2023-01-29T06:48:43;97260.94;;;-5.20;100.00
23229;BME280;11783;50.350;6.576;2023-01-29T06:51:09;97249.97;;;-5.24;100.00
23229;BME280;11783;50.350;6.576;2023-01-29T06:53:36;97266.34;;;-5.23;100.00
23229;BME280;11783;50.350;6.576;2023-01-29T06:56:03;97248.06;;;-5.22;100.00
23229;BME280;11783;50.350;6.576;2023-01-29T06:58:28;97249.75;;;-5.21;100.00
23229;BME280;11783;50.350;6.576;2023-01-29T07:00:53;97254.69;;;-5.18;100.00
23229;BME280;11783;50.350;6.576;2023-01-29T07:03:26;97246.53;;;-5.13;100.00
23229;BME280;11783;50.350;6.576;2023-01-29T07:05:51;97244.91;;;-5.14;100.00
23229;BME280;11783;50.350;6.576;2023-01-29T07:08:18;97238.78;;;-5.13;100.00
23229;BME280;11783;50.350;6.576;2023-01-29T07:10:46;97253.59;;;-5.04;100.00
23229;BME280;11783;50.350;6.576;2023-01-29T07:13:11;97256.66;;;-5.10;100.00
23229;BME280;11783;50.350;6.576;2023-01-29T07:15:37;97262.09;;;-5.13;100.00
23229;BME280;11783;50.350;6.576;2023-01-29T07:18:02;97264.44;;;-5.10;100.00
23229;BME280;11783;50.350;6.576;2023-01-29T07:20:30;97284.69;;;-5.04;100.00
23229;BME280;11783;50.350;6.576;2023-01-29T07:22:56;97298.97;;;-5.09;100.00
23229;BME280;11783;50.350;6.576;2023-01-29T07:25:23;97313.34;;;-5.16;100.00
23229;BME280;11783;50.350;6.576;2023-01-29T07:27:48;97317.94;;;-5.20;100.00
23229;BME280;11783;50.350;6.576;2023-01-29T07:30:14;97325.50;;;-5.17;100.00
23229;BME280;11783;50.350;6.576;2023-01-29T07:32:40;97317.94;;;-5.20;100.00
23229;BME280;11783;50.350;6.576;2023-01-29T07:35:09;97336.78;;;-5.29;100.00
23229;BME280;11783;50.350;6.576;2023-01-29T07:37:34;97329.25;;;-5.32;100.00
23229;BME280;11783;50.350;6.576;2023-01-29T07:40:00;97329.25;;;-5.32;100.00
23229;BME280;11783;50.350;6.576;2023-01-29T07:42:25;97306.16;;;-5.46;100.00
23229;BME280;11783;50.350;6.576;2023-01-29T07:44:51;97295.78;;;-5.46;100.00
23229;BME280;11783;50.350;6.576;2023-01-29T07:47:16;97295.31;;;-5.40;100.00
23229;BME280;11783;50.350;6.576;2023-01-29T07:49:41;97294.38;;;-5.39;100.00
23229;BME280;11783;50.350;6.576;2023-01-29T07:52:07;97291.56;;;-5.36;100.00
23229;BME280;11783;50.350;6.576;2023-01-29T07:54:32;97291.69;;;-5.38;100.00
23229;BME280;11783;50.350;6.576;2023-01-29T07:56:57;97289.19;;;-5.39;100.00
23229;BME280;11783;50.350;6.576;2023-01-29T07:59:23;97300.63;;;-5.42;100.00
23229;BME280;11783;50.350;6.576;2023-01-29T08:01:48;97292.97;;;-5.43;100.00
23229;BME280;11783;50.350;6.576;2023-01-29T08:04:14;97294.50;;;-5.41;100.00
23229;BME280;11783;50.350;6.576;2023-01-29T08:06:39;97286.00;;;-5.43;100.00
23229;BME280;11783;50.350;6.576;2023-01-29T08:09:05;97288.59;;;-5.43;100.00
23229;BME280;11783;50.350;6.576;2023-01-29T08:11:30;97302.38;;;-5.42;100.00
23229;BME280;11783;50.350;6.576;2023-01-29T08:13:55;97295.91;;;-5.48;100.00
23229;BME280;11783;50.350;6.576;2023-01-29T08:16:21;97299.78;;;-5.42;100.00
23229;BME280;11783;50.350;6.576;2023-01-29T08:18:47;97304.72;;;-5.39;100.00
23229;BME280;11783;50.350;6.576;2023-01-29T08:21:13;97295.09;;;-5.49;100.00
23229;BME280;11783;50.350;6.576;2023-01-29T08:23:38;97294.63;;;-5.42;100.00
23229;BME280;11783;50.350;6.576;2023-01-29T08:26:04;97298.63;;;-5.38;100.00
23229;BME280;11783;50.350;6.576;2023-01-29T08:28:29;97309.94;;;-5.28;100.00
23229;BME280;11783;50.350;6.576;2023-01-29T08:30:55;97317.47;;;-5.14;100.00
23229;BME280;11783;50.350;6.576;2023-01-29T08:33:20;97314.25;;;-5.06;100.00
23229;BME280;11783;50.350;6.576;2023-01-29T08:35:49;97305.78;;;-5.08;100.00
23229;BME280;11783;50.350;6.576;2023-01-29T08:38:15;97311.22;;;-5.11;100.00
23229;BME280;11783;50.350;6.576;2023-01-29T08:40:41;97308.75;;;-5.13;100.00
23229;BME280;11783;50.350;6.576;2023-01-29T08:43:07;97297.31;;;-5.10;100.00
23229;BME280;11783;50.350;6.576;2023-01-29T08:45:34;97296.16;;;-5.18;100.00
23229;BME280;11783;50.350;6.576;2023-01-29T08:48:00;97285.41;;;-5.13;100.00
23229;BME280;11783;50.350;6.576;2023-01-29T08:50:25;97283.06;;;-5.16;100.00
23229;BME280;11783;50.350;6.576;2023-01-29T08:52:50;97295.53;;;-5.10;100.00
23229;BME280;11783;50.350;6.576;2023-01-29T08:55:16;97296.94;;;-5.06;100.00
23229;BME280;11783;50.350;6.576;2023-01-29T08:57:41;97300.59;;;-4.97;100.00
23229;BME280;11783;50.350;6.576;2023-01-29T09:00:08;97313.81;;;-5.00;100.00
23229;BME280;11783;50.350;6.576;2023-01-29T09:02:34;97315.91;;;-4.94;100.00
23229;BME280;11783;50.350;6.576;2023-01-29T09:05:00;97306.25;;;-4.92;100.00
23229;BME280;11783;50.350;6.576;2023-01-29T09:07:25;97306.56;;;-4.85;100.00
23229;BME280;11783;50.350;6.576;2023-01-29T09:09:50;97299.63;;;-4.85;100.00
23229;BME280;11783;50.350;6.576;2023-01-29T09:12:16;97306.34;;;-4.82;100.00
23229;BME280;11783;50.350;6.576;2023-01-29T09:14:41;97309.16;;;-4.74;100.00
23229;BME280;11783;50.350;6.576;2023-01-29T09:17:06;97307.84;;;-4.69;100.00
23229;BME280;11783;50.350;6.576;2023-01-29T09:19:32;97310.44;;;-4.69;100.00
23229;BME280;11783;50.350;6.576;2023-01-29T09:21:57;97315.75;;;-4.70;100.00
23229;BME280;11783;50.350;6.576;2023-01-29T09:24:22;97313.72;;;-4.67;100.00
23229;BME280;11783;50.350;6.576;2023-01-29T09:26:48;97315.16;;;-4.63;100.00
23229;BME280;11783;50.350;6.576;2023-01-29T09:29:13;97319.47;;;-4.52;100.00
23229;BME280;11783;50.350;6.576;2023-01-29T09:31:38;97304.59;;;-4.50;100.00
23229;BME280;11783;50.350;6.576;2023-01-29T09:34:04;97307.66;;;-4.45;100.00
23229;BME280;11783;50.350;6.576;2023-01-29T09:36:29;97308.25;;;-4.41;100.00
23229;BME280;11783;50.350;6.576;2023-01-29T09:38:54;97315.78;;;-4.38;100.00
23229;BME280;11783;50.350;6.576;2023-01-29T09:44:15;97310.66;;;-4.29;100.00
23229;BME280;11783;50.350;6.576;2023-01-29T09:46:44;97316.56;;;-4.27;100.00
23229;BME280;11783;50.350;6.576;2023-01-29T09:49:22;97306.06;;;-4.25;100.00
23229;BME280;11783;50.350;6.576;2023-01-29T09:51:52;97310.56;;;-4.27;100.00
23229;BME280;11783;50.350;6.576;2023-01-29T09:54:23;97304.06;;;-4.33;100.00
23229;BME280;11783;50.350;6.576;2023-01-29T09:56:55;97302.16;;;-4.31;100.00
23229;BME280;11783;50.350;6.576;2023-01-29T09:59:24;97292.25;;;-4.25;100.00
23229;BME280;11783;50.350;6.576;2023-01-29T10:04:36;97288.31;;;-4.20;100.00
23229;BME280;11783;50.350;6.576;2023-01-29T10:10:17;97290.28;;;-4.12;100.00
23229;BME280;11783;50.350;6.576;2023-01-29T10:21:46;97271.69;;;-3.97;100.00
23229;BME280;11783;50.350;6.576;2023-01-29T10:24:37;97266.22;;;-3.93;100.00
23229;BME280;11783;50.350;6.576;2023-01-29T10:27:12;97265.72;;;-3.87;100.00
23229;BME280;11783;50.350;6.576;2023-01-29T10:29:40;97264.25;;;-3.80;100.00
23229;BME280;11783;50.350;6.576;2023-01-29T10:32:13;97265.63;;;-3.76;100.00
23229;BME280;11783;50.350;6.576;2023-01-29T10:34:51;97257.47;;;-3.72;100.00
23229;BME280;11783;50.350;6.576;2023-01-29T10:37:32;97258.59;;;-3.64;100.00
23229;BME280;11783;50.350;6.576;2023-01-29T10:39:59;97252.63;;;-3.55;100.00
23229;BME280;11783;50.350;6.576;2023-01-29T10:42:38;97247.88;;;-3.50;100.00
23229;BME280;11783;50.350;6.576;2023-01-29T10:45:13;97241.06;;;-3.42;100.00
23229;BME280;11783;50.350;6.576;2023-01-29T10:55:49;97216.75;;;-3.21;100.00
23229;BME280;11783;50.350;6.576;2023-01-29T10:58:37;97210.34;;;-3.17;100.00
23229;BME280;11783;50.350;6.576;2023-01-29T11:01:08;97194.34;;;-3.13;100.00
23229;BME280;11783;50.350;6.576;2023-01-29T11:03:36;97188.75;;;-3.08;100.00
23229;BME280;11783;50.350;6.576;2023-01-29T11:06:08;97189.56;;;-3.08;100.00
23229;BME280;11783;50.350;6.576;2023-01-29T11:11:53;97170.53;;;-2.98;100.00
23229;BME280;11783;50.350;6.576;2023-01-29T11:14:24;97167.41;;;-2.92;100.00
23229;BME280;11783;50.350;6.576;2023-01-29T11:16:51;97167.41;;;-2.83;100.00
23229;BME280;11783;50.350;6.576;2023-01-29T11:19:17;97170.31;;;-2.76;100.00
23229;BME280;11783;50.350;6.576;2023-01-29T11:22:14;97165.50;;;-2.71;100.00
23229;BME280;11783;50.350;6.576;2023-01-29T11:24:43;97170.56;;;-2.60;100.00
23229;BME280;11783;50.350;6.576;2023-01-29T11:27:22;97178.63;;;-2.63;100.00
23229;BME280;11783;50.350;6.576;2023-01-29T11:29:51;97172.22;;;-2.59;100.00
23229;BME280;11783;50.350;6.576;2023-01-29T11:37:42;97161.50;;;-2.36;100.00
23229;BME280;11783;50.350;6.576;2023-01-29T11:42:42;97149.56;;;-2.29;100.00
23229;BME280;11783;50.350;6.576;2023-01-29T11:45:27;97143.00;;;-2.33;100.00
23229;BME280;11783;50.350;6.576;2023-01-29T11:47:56;97143.78;;;-2.23;100.00
23229;BME280;11783;50.350;6.576;2023-01-29T11:50:28;97148.97;;;-2.14;100.00
23229;BME280;11783;50.350;6.576;2023-01-29T11:52:54;97133.72;;;-2.08;100.00
23229;BME280;11783;50.350;6.576;2023-01-29T11:55:31;97133.44;;;-1.96;100.00
23229;BME280;11783;50.350;6.576;2023-01-29T11:58:10;97130.50;;;-1.83;100.00
23229;BME280;11783;50.350;6.576;2023-01-29T12:00:38;97123.88;;;-1.77;100.00
23229;BME280;11783;50.350;6.576;2023-01-29T12:05:57;97120.66;;;-1.62;100.00
23229;BME280;11783;50.350;6.576;2023-01-29T12:08:33;97112.94;;;-1.54;100.00
23229;BME280;11783;50.350;6.576;2023-01-29T12:13:40;97103.44;;;-1.45;100.00
23229;BME280;11783;50.350;6.576;2023-01-29T12:16:24;97101.84;;;-1.38;100.00
23229;BME280;11783;50.350;6.576;2023-01-29T12:21:45;97093.38;;;-1.22;99.67
23229;BME280;11783;50.350;6.576;2023-01-29T12:26:49;97093.69;;;-1.25;100.00
23229;BME280;11783;50.350;6.576;2023-01-29T12:34:47;97095.03;;;-1.21;100.00
23229;BME280;11783;50.350;6.576;2023-01-29T12:37:29;97085.88;;;-1.25;99.56
23229;BME280;11783;50.350;6.576;2023-01-29T12:40:00;97084.81;;;-1.14;100.00
23229;BME280;11783;50.350;6.576;2023-01-29T12:42:26;97085.47;;;-1.12;100.00
23229;BME280;11783;50.350;6.576;2023-01-29T12:44:58;97080.19;;;-1.03;99.22
23229;BME280;11783;50.350;6.576;2023-01-29T12:47:35;97082.19;;;-0.97;100.00
23229;BME280;11783;50.350;6.576;2023-01-29T12:52:46;97070.94;;;-0.97;100.00
23229;BME280;11783;50.350;6.576;2023-01-29T12:58:02;97068.72;;;-0.92;100.00
23229;BME280;11783;50.350;6.576;2023-01-29T13:00:34;97064.44;;;-0.93;100.00
23229;BME280;11783;50.350;6.576;2023-01-29T13:03:08;97058.88;;;-0.98;100.00
23229;BME280;11783;50.350;6.576;2023-01-29T13:08:18;97053.59;;;-1.06;100.00
23229;BME280;11783;50.350;6.576;2023-01-29T13:10:50;97051.97;;;-1.07;100.00
23229;BME280;11783;50.350;6.576;2023-01-29T13:13:43;97049.09;;;-1.14;100.00
23229;BME280;11783;50.350;6.576;2023-01-29T13:16:18;97050.75;;;-1.13;100.00
23229;BME280;11783;50.350;6.576;2023-01-29T13:18:52;97049.94;;;-1.13;100.00
23229;BME280;11783;50.350;6.576;2023-01-29T13:21:29;97045.53;;;-1.13;100.00
23229;BME280;11783;50.350;6.576;2023-01-29T13:23:58;97037.50;;;-1.19;100.00
23229;BME280;11783;50.350;6.576;2023-01-29T13:26:26;97036.31;;;-1.25;100.00
23229;BME280;11783;50.350;6.576;2023-01-29T13:28:53;97035.84;;;-1.38;100.00
23229;BME280;11783;50.350;6.576;2023-01-29T13:31:27;97034.66;;;-1.44;100.00
23229;BME280;11783;50.350;6.576;2023-01-29T13:36:45;97030.56;;;-1.46;100.00
23229;BME280;11783;50.350;6.576;2023-01-29T13:39:50;97024.53;;;-1.47;100.00
23229;BME280;11783;50.350;6.576;2023-01-29T13:42:19;97023.84;;;-1.49;100.00
23229;BME280;11783;50.350;6.576;2023-01-29T13:44:48;97014.03;;;-1.55;100.00
23229;BME280;11783;50.350;6.576;2023-01-29T13:47:28;97011.41;;;-1.55;100.00
23229;BME280;11783;50.350;6.576;2023-01-29T13:49:55;97001.34;;;-1.50;100.00
23229;BME280;11783;50.350;6.576;2023-01-29T13:52:40;96998.91;;;-1.52;100.00
23229;BME280;11783;50.350;6.576;2023-01-29T14:08:05;96978.41;;;-1.29;100.00
23229;BME280;11783;50.350;6.576;2023-01-29T14:10:35;96975.97;;;-1.30;100.00
23229;BME280;11783;50.350;6.576;2023-01-29T14:15:36;96961.81;;;-1.28;100.00
23229;BME280;11783;50.350;6.576;2023-01-29T14:18:13;96965.38;;;-1.29;100.00
23229;BME280;11783;50.350;6.576;2023-01-29T14:25:53;96968.81;;;-1.28;100.00
23229;BME280;11783;50.350;6.576;2023-01-29T14:28:22;96968.97;;;-1.30;100.00
23229;BME280;11783;50.350;6.576;2023-01-29T14:30:48;96968.16;;;-1.30;100.00
23229;BME280;11783;50.350;6.576;2023-01-29T14:33:26;96969.91;;;-1.31;100.00
23229;BME280;11783;50.350;6.576;2023-01-29T14:35:57;96975.00;;;-1.29;100.00
23229;BME280;11783;50.350;6.576;2023-01-29T14:38:25;96970.50;;;-1.37;100.00
23229;BME280;11783;50.350;6.576;2023-01-29T14:41:31;96975.88;;;-1.38;100.00
23229;BME280;11783;50.350;6.576;2023-01-29T14:47:00;96968.38;;;-1.59;100.00
23229;BME280;11783;50.350;6.576;2023-01-29T14:49:56;96958.91;;;-1.60;100.00
23229;BME280;11783;50.350;6.576;2023-01-29T14:52:35;96948.84;;;-1.55;100.00
23229;BME280;11783;50.350;6.576;2023-01-29T14:55:04;96955.84;;;-1.56;100.00
23229;BME280;11783;50.350;6.576;2023-01-29T14:57:31;96941.34;;;-1.58;100.00
23229;BME280;11783;50.350;6.576;2023-01-29T15:00:03;96943.94;;;-1.58;100.00
23229;BME280;11783;50.350;6.576;2023-01-29T15:02:41;96948.50;;;-1.60;100.00
23229;BME280;11783;50.350;6.576;2023-01-29T15:05:16;96948.50;;;-1.60;100.00
23229;BME280;11783;50.350;6.576;2023-01-29T15:10:45;96959.28;;;-1.55;100.00
23229;BME280;11783;50.350;6.576;2023-01-29T15:13:29;96949.09;;;-1.66;100.00
23229;BME280;11783;50.350;6.576;2023-01-29T15:16:08;96928.91;;;-1.64;100.00
23229;BME280;11783;50.350;6.576;2023-01-29T15:18:42;96936.78;;;-1.74;100.00
23229;BME280;11783;50.350;6.576;2023-01-29T15:21:13;96942.91;;;-1.83;100.00
23229;BME280;11783;50.350;6.576;2023-01-29T15:23:39;96953.75;;;-1.88;100.00
23229;BME280;11783;50.350;6.576;2023-01-29T15:26:07;96959.38;;;-1.83;100.00
23229;BME280;11783;50.350;6.576;2023-01-29T15:28:34;96963.81;;;-1.75;100.00